Time;durP1;ratioP1;P1;durP2;ratioP2;P2;SDS_P1;SDS_P2;PMS_P1;PMS_P2;Temp;Humidity;BMP_temperature;BMP_pressure;BME280_temperature;BME280_humidity;BME280_pressure;Samples;Min_cycle;Max_cycle;Signal;HPM_P1;HPM_P2
2023/01/09 00:01:57;;;;;;;50.08;17.73;;;;;;;-10.77;49.17;101302.88;4768224;30;20054;-79
2023/01/09 00:04:22;;;;;;;42.85;18.75;;;;;;;-10.93;49.33;101318.28;4768735;30;20048;-76
2023/01/09 00:06:52;;;;;;;46.58;19.05;;;;;;;-10.93;49.02;101315.63;4769238;30;20097;-77
2023/01/09 00:09:20;;;;;;;46.58;17.73;;;;;;;-10.82;48.56;101320.91;4769014;30;20047;-77
2023/01/09 00:11:47;;;;;;;46.67;18.27;;;;;;;-10.80;47.98;101328.69;4768440;30;20138;-78
2023/01/09 00:14:14;;;;;;;47.40;16.67;;;;;;;-10.77;47.96;101334.56;4768538;30;20043;-77
2023/01/09 00:16:40;;;;;;;48.35;18.80;;;;;;;-10.75;47.62;101323.91;4768838;30;20052;-79
2023/01/09 00:19:06;;;;;;;45.25;18.55;;;;;;;-10.79;47.60;101325.94;4769794;30;20090;-75
2023/01/09 00:21:32;;;;;;;48.33;17.67;;;;;;;-10.83;47.69;101321.84;4769075;30;20048;-77
2023/01/09 00:23:58;;;;;;;50.92;18.35;;;;;;;-10.85;47.32;101317.69;4768490;30;20047;-78
2023/01/09 00:26:24;;;;;;;42.50;17.05;;;;;;;-10.91;47.46;101324.28;4768793;30;20134;-79
2023/01/09 00:28:51;;;;;;;43.13;17.90;;;;;;;-10.94;47.29;101327.19;4769093;30;20047;-79
2023/01/09 00:31:18;;;;;;;42.33;18.10;;;;;;;-11.07;47.31;101314.13;4752829;30;20105;-77
2023/01/09 00:33:49;;;;;;;44.63;17.77;;;;;;;-11.17;47.71;101323.75;4768508;30;20460;-77
2023/01/09 00:36:15;;;;;;;39.65;17.02;;;;;;;-11.22;48.08;101337.34;4769902;30;20510;-76
2023/01/09 00:38:41;;;;;;;58.05;18.63;;;;;;;-11.17;47.54;101329.88;4769869;30;20040;-79
2023/01/09 00:41:11;;;;;;;44.80;16.70;;;;;;;-11.29;47.65;101332.63;4770441;30;20051;-76
2023/01/09 00:43:45;;;;;;;45.88;17.73;;;;;;;-11.29;47.87;101333.50;4769284;30;20074;-77
2023/01/09 00:46:12;;;;;;;39.83;16.55;;;;;;;-11.41;47.88;101331.81;4769044;30;20534;-77
2023/01/09 00:48:41;;;;;;;45.88;17.80;;;;;;;-11.45;47.94;101331.22;4768181;30;20043;-78
2023/01/09 00:51:07;;;;;;;42.17;16.48;;;;;;;-11.51;47.85;101328.22;4769224;30;20047;-78
2023/01/09 00:53:36;;;;;;;46.40;18.43;;;;;;;-11.70;48.40;101329.66;4769578;30;20414;-79
2023/01/09 00:56:05;;;;;;;44.88;18.23;;;;;;;-11.90;48.60;101323.31;4771469;30;20400;-77
2023/01/09 00:58:33;;;;;;;44.92;16.23;;;;;;;-11.87;48.32;101316.97;4772173;30;20086;-77
2023/01/09 01:00:59;;;;;;;49.05;16.83;;;;;;;-11.79;48.16;101325.09;4772515;30;20048;-78
2023/01/09 01:03:26;;;;;;;39.83;14.93;;;;;;;-11.88;47.75;101326.69;4772208;30;20051;-77
2023/01/09 01:08:36;;;;;;;32.10;12.13;;;;;;;-12.01;47.86;101328.59;4772330;30;20467;-78
2023/01/09 01:11:05;;;;;;;33.63;13.02;;;;;;;-12.18;47.93;101329.03;4771069;30;20054;-77
2023/01/09 01:13:31;;;;;;;34.20;11.98;;;;;;;-12.55;48.63;101310.69;4771737;30;20055;-77
2023/01/09 01:15:57;;;;;;;33.95;12.27;;;;;;;-12.46;48.66;101317.94;4773099;30;20056;-78
2023/01/09 01:18:23;;;;;;;28.27;11.05;;;;;;;-12.38;47.84;101328.75;4773364;30;20046;-77
2023/01/09 01:20:48;;;;;;;23.65;10.65;;;;;;;-12.44;48.06;101329.19;4772973;30;20490;-77
2023/01/09 01:23:14;;;;;;;35.00;10.68;;;;;;;-12.50;48.23;101332.28;4772244;30;20164;-78
2023/01/09 01:25:41;;;;;;;28.58;11.40;;;;;;;-12.50;48.06;101328.81;4771163;30;20047;-77
2023/01/09 01:28:08;;;;;;;28.23;10.98;;;;;;;-12.40;47.79;101335.06;4755879;30;20507;-77
2023/01/09 01:30:38;;;;;;;33.60;12.20;;;;;;;-12.49;47.79;101319.94;4772205;30;20055;-77
2023/01/09 01:33:06;;;;;;;22.58;10.57;;;;;;;-12.27;47.85;101330.56;4771664;30;20506;-78
2023/01/09 01:35:32;;;;;;;26.17;10.15;;;;;;;-12.28;47.30;101334.16;4772452;30;20502;-76
2023/01/09 01:37:58;;;;;;;25.42;11.50;;;;;;;-12.28;47.25;101335.94;4772161;30;20112;-77
2023/01/09 01:40:25;;;;;;;31.77;11.30;;;;;;;-12.18;46.77;101343.06;4772643;30;20063;-78
2023/01/09 01:42:53;;;;;;;27.63;11.38;;;;;;;-12.35;47.16;101339.06;4771725;30;20077;-77
2023/01/09 01:45:25;;;;;;;30.60;11.38;;;;;;;-12.36;46.73;101344.44;4772030;30;20138;-78
2023/01/09 01:48:08;;;;;;;28.08;10.70;;;;;;;-12.52;47.27;101338.63;4771021;30;20063;-78
2023/01/09 01:50:44;;;;;;;28.60;10.98;;;;;;;-12.34;47.07;101342.53;4772021;30;20043;-78
2023/01/09 01:53:13;;;;;;;25.55;10.10;;;;;;;-12.26;46.50;101349.84;4772294;30;20044;-76
2023/01/09 01:55:52;;;;;;;30.02;11.65;;;;;;;-12.10;46.08;101343.31;4772063;30;20039;-77
2023/01/09 01:58:19;;;;;;;27.85;10.70;;;;;;;-12.32;46.13;101343.22;4771746;30;20048;-78
2023/01/09 02:00:46;;;;;;;28.73;11.52;;;;;;;-12.26;46.62;101353.31;4771969;30;20056;-78
2023/01/09 02:03:17;;;;;;;30.02;11.43;;;;;;;-12.18;46.10;101355.41;4770151;30;20050;-78
2023/01/09 02:05:44;;;;;;;26.33;11.05;;;;;;;-12.13;45.95;101356.72;4771384;30;20093;-79
2023/01/09 02:08:11;;;;;;;24.35;9.98;;;;;;;-12.29;45.83;101352.72;4771260;30;20044;-78
2023/01/09 02:10:38;;;;;;;28.20;9.82;;;;;;;-12.28;46.17;101355.25;4771149;30;20063;-79
2023/01/09 02:13:05;;;;;;;;;;;;;;;-12.34;46.19;101353.06;4772326;30;20048;-76
2023/01/09 02:15:51;;;;;;;25.20;10.43;;;;;;;-12.34;46.06;101350.44;4771280;30;19932;-77
2023/01/09 02:18:37;;;;;;;26.30;9.85;;;;;;;-12.44;46.31;101357.34;4771309;30;20060;-78
2023/01/09 02:21:21;;;;;;;25.45;9.43;;;;;;;-12.63;46.11;101358.69;4770646;30;20464;-79
2023/01/09 02:23:59;;;;;;;26.63;10.48;;;;;;;-12.67;46.73;101362.50;4771209;30;20101;-78
2023/01/09 02:26:46;;;;;;;28.40;10.38;;;;;;;-12.72;46.43;101369.91;4770770;30;20048;-77
2023/01/09 02:29:15;;;;;;;28.90;10.48;;;;;;;-12.55;46.25;101368.66;4770859;30;20051;-77
2023/01/09 02:32:04;;;;;;;30.30;10.45;;;;;;;-12.61;46.15;101363.88;4771423;30;20083;-77
2023/01/09 02:34:44;;;;;;;26.52;9.77;;;;;;;-12.49;46.19;101370.84;4763115;30;20159;-78
2023/01/09 02:37:22;;;;;;;23.55;9.85;;;;;;;-12.36;46.26;101365.50;4771849;30;20055;-77
2023/01/09 02:40:03;;;;;;;27.75;11.05;;;;;;;-12.19;45.43;101372.16;4771324;30;20074;-77
2023/01/09 02:42:32;;;;;;;28.60;10.45;;;;;;;-12.35;45.40;101346.97;4754256;30;20588;-78
2023/01/09 02:44:59;;;;;;;22.83;9.00;;;;;;;-12.48;45.75;101361.13;4770221;30;20097;-77
2023/01/09 02:47:28;;;;;;;23.45;9.07;;;;;;;-12.45;45.50;101368.81;4770566;30;20426;-77
2023/01/09 02:49:59;;;;;;;36.38;11.25;;;;;;;-12.32;46.02;101375.69;4770392;30;20043;-79
2023/01/09 02:52:46;;;;;;;34.20;10.73;;;;;;;-12.38;46.10;101365.63;4769901;30;20512;-78
2023/01/09 02:55:21;;;;;;;32.30;10.48;;;;;;;-12.32;46.11;101378.34;4769889;30;20529;-76
2023/01/09 02:58:07;;;;;;;29.63;11.50;;;;;;;-12.37;45.96;101372.56;4760328;30;20091;-77
2023/01/09 03:01:11;;;;;;;31.15;10.50;;;;;;;-12.42;46.00;101377.34;4770167;30;20123;-79
2023/01/09 03:03:47;;;;;;;33.17;10.20;;;;;;;-12.40;46.41;101372.81;4769164;30;20056;-77
2023/01/09 03:06:42;;;;;;;33.42;10.50;;;;;;;-12.32;46.69;101378.34;4770452;30;20075;-77
2023/01/09 03:09:16;;;;;;;28.55;9.85;;;;;;;-12.45;46.75;101393.38;4772262;30;20422;-77
2023/01/09 03:11:55;;;;;;;31.83;10.05;;;;;;;-12.41;46.20;101379.03;4770752;30;20418;-76
2023/01/09 03:14:24;;;;;;;26.15;9.85;;;;;;;-12.21;46.29;101385.47;4769926;30;20052;-78
2023/01/09 03:16:57;;;;;;;28.88;9.52;;;;;;;-12.15;46.82;101386.78;4769728;30;20052;-77
2023/01/09 03:19:28;;;;;;;30.83;10.43;;;;;;;-12.31;47.05;101385.31;4751499;30;20048;-78
2023/01/09 03:21:55;;;;;;;24.25;8.98;;;;;;;-12.26;46.70;101369.13;4755894;30;20604;-77
2023/01/09 03:24:21;;;;;;;34.10;10.55;;;;;;;-12.01;46.58;101381.31;4769496;30;20044;-77
2023/01/09 03:26:47;;;;;;;29.30;9.98;;;;;;;-12.10;46.37;101389.91;4769346;30;20374;-77
2023/01/09 03:29:13;;;;;;;28.70;9.80;;;;;;;-12.12;46.76;101383.91;4770079;30;20051;-78
2023/01/09 03:31:39;;;;;;;29.73;9.85;;;;;;;-12.15;47.06;101390.28;4770171;30;20058;-77
2023/01/09 03:34:05;;;;;;;28.08;9.50;;;;;;;-12.09;47.11;101391.59;4769703;30;20043;-77
2023/01/09 03:36:31;;;;;;;28.88;10.48;;;;;;;-11.98;46.91;101382.91;4770467;30;20043;-78
2023/01/09 03:38:57;;;;;;;24.52;7.95;;;;;;;-12.10;46.65;101384.66;4770083;30;20097;-77
2023/01/09 03:41:23;;;;;;;27.90;7.88;;;;;;;-12.09;46.86;101395.06;4770164;30;20046;-77
2023/01/09 03:43:49;;;;;;;24.45;10.32;;;;;;;-11.99;46.57;101404.94;4769935;30;20048;-77
2023/01/09 03:46:16;;;;;;;23.42;8.90;;;;;;;-12.00;46.55;101403.25;4770493;30;20054;-77
2023/01/09 03:48:42;;;;;;;30.02;9.65;;;;;;;-12.03;46.48;101399.03;4770205;30;20050;-78
2023/01/09 03:51:08;;;;;;;23.30;9.00;;;;;;;-12.06;46.29;101383.44;4769250;30;20488;-77
2023/01/09 03:53:34;;;;;;;21.98;8.70;;;;;;;-11.92;46.71;101403.50;4769006;30;20130;-77
2023/01/09 03:55:59;;;;;;;23.90;9.25;;;;;;;-11.88;46.56;101405.81;4769007;30;20291;-77
2023/01/09 03:58:26;;;;;;;28.67;9.02;;;;;;;-12.08;46.74;101396.75;4768520;30;20604;-75
2023/01/09 04:00:57;;;;;;;24.13;8.05;;;;;;;-12.09;47.01;101410.88;4767957;30;20070;-77
2023/01/09 04:03:23;;;;;;;19.60;7.20;;;;;;;-12.19;46.85;101404.63;4768963;30;20063;-76
2023/01/09 04:05:49;;;;;;;21.50;8.43;;;;;;;-12.21;47.24;101405.72;4768994;30;20055;-77
2023/01/09 04:08:16;;;;;;;20.63;7.82;;;;;;;-12.24;47.34;101411.22;4767476;30;20055;-75
2023/01/09 04:10:45;;;;;;;19.77;8.57;;;;;;;-12.16;46.94;101409.66;4766734;30;20533;-76
2023/01/09 04:13:12;;;;;;;25.20;9.43;;;;;;;-12.11;46.82;101401.44;4767146;30;20139;-81
2023/01/09 04:15:38;;;;;;;23.50;8.60;;;;;;;-12.18;47.14;101406.31;4767577;30;20059;-74
2023/01/09 04:18:04;;;;;;;21.38;8.52;;;;;;;-12.15;47.24;101406.09;4766143;30;20055;-75
2023/01/09 04:20:30;;;;;;;28.27;7.93;;;;;;;-12.08;46.67;101402.03;4767737;30;20039;-77
2023/01/09 04:22:58;;;;;;;28.02;9.15;;;;;;;-11.90;46.60;101414.78;4768577;30;20075;-77
2023/01/09 04:25:25;;;;;;;24.42;8.60;;;;;;;-12.17;46.48;101415.06;4753876;30;20135;-77
2023/01/09 04:27:52;;;;;;;22.17;9.45;;;;;;;-12.15;46.87;101421.91;4766112;30;20052;-79
2023/01/09 04:30:18;;;;;;;23.63;9.80;;;;;;;-12.07;46.57;101424.81;4770216;30;20462;-78
2023/01/09 04:32:44;;;;;;;21.75;10.15;;;;;;;-12.09;46.49;101416.16;4772958;30;20474;-79
2023/01/09 04:35:10;;;;;;;28.35;9.32;;;;;;;-12.08;46.26;101414.38;4772113;30;20109;-78
2023/01/09 04:37:36;;;;;;;22.85;9.27;;;;;;;-12.10;46.27;101425.03;4773041;30;20051;-79
2023/01/09 04:40:07;;;;;;;34.85;10.05;;;;;;;-12.20;46.51;101439.00;4772127;30;20503;-61
2023/01/09 04:42:33;;;;;;;27.50;9.38;;;;;;;-12.13;46.17;101435.81;4754348;30;20105;-66
2023/01/09 04:44:59;;;;;;;25.67;9.02;;;;;;;-12.10;46.24;101438.22;4771748;30;20036;-73
2023/01/09 04:47:25;;;;;;;24.15;9.23;;;;;;;-12.08;46.70;101441.59;4771156;30;20050;-64
2023/01/09 04:49:51;;;;;;;26.90;8.73;;;;;;;-12.17;46.30;101439.63;4772029;30;20044;-63
2023/01/09 04:52:17;;;;;;;27.77;8.37;;;;;;;-12.15;46.39;101448.28;4771068;30;20126;-65
2023/01/09 04:54:43;;;;;;;23.10;7.93;;;;;;;-12.26;46.44;101450.00;4772043;30;20131;-63
2023/01/09 04:57:09;;;;;;;25.27;8.90;;;;;;;-12.29;46.63;101442.31;4771340;30;20563;-63
2023/01/09 04:59:35;;;;;;;23.48;8.23;;;;;;;-12.23;46.71;101445.34;4772035;30;20469;-66
2023/01/09 05:02:01;;;;;;;32.00;8.40;;;;;;;-12.05;46.77;101452.84;4770532;30;20196;-63
2023/01/09 05:04:27;;;;;;;26.98;8.70;;;;;;;-12.15;46.52;101458.81;4771468;30;20125;-64
2023/01/09 05:06:53;;;;;;;21.58;8.32;;;;;;;-12.23;46.69;101460.31;4770624;30;20490;-62
2023/01/09 05:09:20;;;;;;;25.25;8.73;;;;;;;-12.13;46.74;101448.97;4771733;30;20043;-63
2023/01/09 05:11:46;;;;;;;26.42;8.88;;;;;;;-12.05;46.67;101451.06;4771814;30;20048;-63
2023/01/09 05:14:12;;;;;;;26.90;9.88;;;;;;;-11.93;46.62;101452.78;4771412;30;20559;-64
2023/01/09 05:16:38;;;;;;;21.35;9.02;;;;;;;-11.88;46.29;101458.56;4770195;30;20599;-64
2023/01/09 05:19:07;;;;;;;24.40;9.82;;;;;;;-11.98;46.09;101454.94;4770903;30;20097;-63
2023/01/09 05:21:33;;;;;;;26.52;8.70;;;;;;;-11.97;46.31;101451.31;4770463;30;20465;-64
2023/01/09 05:23:59;;;;;;;23.75;9.45;;;;;;;-11.91;46.71;101453.50;4771160;30;20046;-66
2023/01/09 05:26:25;;;;;;;24.98;9.27;;;;;;;-12.16;46.88;101454.47;4771447;30;20140;-65
2023/01/09 05:28:53;;;;;;;26.88;8.73;;;;;;;-12.03;47.47;101451.78;4771053;30;20051;-64
2023/01/09 05:31:19;;;;;;;25.27;9.25;;;;;;;-11.99;47.15;101469.06;4771236;30;20052;-65
2023/01/09 05:33:45;;;;;;;20.70;8.50;;;;;;;-11.96;47.26;101466.19;4770805;30;20372;-67
2023/01/09 05:36:11;;;;;;;21.80;8.50;;;;;;;-11.86;47.23;101461.06;4770292;30;20051;-65
2023/01/09 05:38:37;;;;;;;31.25;8.68;;;;;;;-11.93;47.23;101467.75;4771919;30;20040;-64
2023/01/09 05:41:04;;;;;;;24.65;8.48;;;;;;;-11.85;47.35;101466.25;4770972;30;20071;-64
2023/01/09 05:43:30;;;;;;;20.50;8.70;;;;;;;-11.84;47.12;101473.16;4754685;30;20040;-64
2023/01/09 05:45:56;;;;;;;26.27;9.50;;;;;;;-11.84;47.07;101469.72;4770282;30;20060;-64
2023/01/09 05:48:21;;;;;;;30.33;9.77;;;;;;;-11.80;47.43;101471.13;4770167;30;20521;-64
2023/01/09 05:50:47;;;;;;;30.35;9.75;;;;;;;-11.70;47.14;101476.56;4771214;30;20082;-65
2023/01/09 05:53:13;;;;;;;26.63;9.73;;;;;;;-11.83;46.76;101476.63;4760700;30;20129;-64
2023/01/09 05:55:39;;;;;;;30.58;11.23;;;;;;;-11.89;47.62;101483.22;4753094;30;20044;-64
2023/01/09 05:58:05;;;;;;;37.13;12.30;;;;;;;-11.90;47.52;101483.34;4763392;30;20047;-64
2023/01/09 06:00:31;;;;;;;30.42;10.75;;;;;;;-12.11;47.22;101484.00;4770827;30;20704;-64
2023/01/09 06:02:58;;;;;;;28.38;9.95;;;;;;;-11.88;47.11;101474.38;4769867;30;20594;-64
2023/01/09 06:05:24;;;;;;;32.17;10.60;;;;;;;-11.90;47.10;101489.47;4770228;30;20044;-64
2023/01/09 06:07:50;;;;;;;31.88;10.23;;;;;;;-12.07;46.93;101480.16;4769785;30;20048;-80
2023/01/09 06:10:16;;;;;;;25.65;9.30;;;;;;;-12.21;47.20;101461.91;4771238;30;20083;-79
2023/01/09 06:12:47;;;;;;;23.37;9.80;;;;;;;-11.81;47.38;101487.91;4771879;30;20063;-79
2023/01/09 06:15:14;;;;;;;25.00;9.35;;;;;;;-11.95;46.89;101498.66;4771523;30;20418;-81
2023/01/09 06:17:40;;;;;;;17.42;8.35;;;;;;;-12.04;47.07;101491.47;4771985;30;20085;-83
2023/01/09 06:20:07;;;;;;;29.05;9.32;;;;;;;-12.08;46.79;101491.69;4769095;30;20048;-80
2023/01/09 06:22:33;;;;;;;37.38;10.85;;;;;;;-11.97;46.87;101496.16;4769941;30;20040;-79
2023/01/09 06:25:00;;;;;;;25.27;9.05;;;;;;;-12.00;46.66;101500.81;4771206;30;20055;-80
2023/01/09 06:27:26;;;;;;;27.20;9.48;;;;;;;-12.12;47.22;101505.19;4771852;30;20140;-83
2023/01/09 06:29:53;;;;;;;28.15;8.48;;;;;;;-12.26;47.72;101506.19;4771298;30;20055;-81
2023/01/09 06:32:19;;;;;;;30.42;10.05;;;;;;;-12.40;47.56;101504.56;4770475;30;20105;-80
2023/01/09 06:34:45;;;;;;;22.77;9.00;;;;;;;-12.22;47.58;101520.81;4770740;30;20047;-79
2023/01/09 06:37:11;;;;;;;26.02;8.85;;;;;;;-12.22;47.79;101520.81;4769718;30;20079;-81
2023/01/09 06:39:38;;;;;;;25.52;9.10;;;;;;;-12.15;47.22;101508.91;4771916;30;20066;-80
2023/01/09 06:42:05;;;;;;;20.35;8.23;;;;;;;-12.26;47.65;101521.16;4755974;30;20047;-80
2023/01/09 06:44:32;;;;;;;29.33;9.48;;;;;;;-12.17;47.34;101505.53;4772191;30;20051;-82
2023/01/09 06:46:58;;;;;;;25.33;9.48;;;;;;;-12.13;47.40;101504.34;4771298;30;20075;-80
2023/01/09 06:49:24;;;;;;;19.73;8.15;;;;;;;-11.94;47.12;101514.41;4772815;30;20048;-81
2023/01/09 06:51:50;;;;;;;25.70;9.43;;;;;;;-12.01;47.32;101528.16;4754829;30;20456;-82
2023/01/09 06:54:20;;;;;;;19.88;8.18;;;;;;;-12.03;47.32;101520.34;4771246;30;20058;-82
2023/01/09 06:56:47;;;;;;;29.90;9.63;;;;;;;-11.99;47.49;101532.34;4770120;30;20559;-80
2023/01/09 06:59:13;;;;;;;22.90;9.27;;;;;;;-12.04;47.28;101531.00;4771007;30;20399;-80
2023/01/09 07:01:39;;;;;;;24.52;9.05;;;;;;;-12.00;47.03;101535.94;4769402;30;20048;-80
2023/01/09 07:04:06;;;;;;;21.52;9.15;;;;;;;-11.90;46.83;101536.94;4754393;30;20090;-79
2023/01/09 07:06:33;;;;;;;23.45;10.02;;;;;;;-11.96;46.50;101536.56;4770421;30;20043;-78
2023/01/09 07:08:59;;;;;;;21.65;8.23;;;;;;;-11.99;46.15;101529.69;4769777;30;20063;-78
2023/01/09 07:11:25;;;;;;;29.08;7.75;;;;;;;-12.10;46.47;101543.69;4768710;30;20067;-80
2023/01/09 07:13:51;;;;;;;23.52;8.73;;;;;;;-12.13;46.15;101527.25;4768457;30;20071;-79
2023/01/09 07:16:17;;;;;;;30.17;9.05;;;;;;;-12.02;46.01;101558.09;4768175;30;20525;-80
2023/01/09 07:18:43;;;;;;;32.92;9.05;;;;;;;-12.17;45.60;101538.97;4753783;30;20396;-76
2023/01/09 07:21:10;;;;;;;22.05;9.10;;;;;;;-12.30;45.95;101557.44;4752219;30;20035;-79
2023/01/09 07:23:36;;;;;;;23.55;9.55;;;;;;;-12.33;45.93;101561.13;4768237;30;20426;-77
2023/01/09 07:26:02;;;;;;;26.90;9.05;;;;;;;-12.32;45.97;101561.97;4769553;30;20044;-78
2023/01/09 07:28:28;;;;;;;34.72;10.40;;;;;;;-12.36;46.18;101568.44;4769131;30;20055;-78
2023/01/09 07:30:54;;;;;;;29.67;9.45;;;;;;;-12.32;45.53;101551.44;4770566;30;20530;-79
2023/01/09 07:33:20;;;;;;;25.58;8.32;;;;;;;-12.31;45.82;101553.97;4769659;30;20043;-79
2023/01/09 07:35:46;;;;;;;20.92;6.90;;;;;;;-12.24;45.90;101559.66;4769789;30;20071;-77
2023/01/09 07:38:12;;;;;;;16.40;6.63;;;;;;;-12.31;45.29;101559.25;4768008;30;20510;-79
2023/01/09 07:40:38;;;;;;;17.05;7.05;;;;;;;-12.49;46.10;101557.91;4768381;30;20514;-77
2023/01/09 07:43:05;;;;;;;18.63;6.97;;;;;;;-12.38;46.11;101554.50;4770915;30;20086;-80
2023/01/09 07:45:30;;;;;;;23.95;7.43;;;;;;;-12.29;46.43;101567.03;4771457;30;20052;-83
2023/01/09 07:47:57;;;;;;;18.63;7.25;;;;;;;-12.41;46.45;101563.50;4771526;30;20092;-82
2023/01/09 07:50:23;;;;;;;16.73;7.13;;;;;;;-12.60;45.96;101558.69;4770598;30;20075;-83
2023/01/09 07:52:49;;;;;;;16.85;7.18;;;;;;;-12.56;46.64;101570.69;4771200;30;20056;-81
2023/01/09 07:55:15;;;;;;;18.42;7.57;;;;;;;-12.50;46.33;101576.47;4768703;30;20607;-83
2023/01/09 07:57:41;;;;;;;22.70;7.43;;;;;;;-12.50;46.65;101571.22;4753707;30;20052;-70
2023/01/09 08:00:09;;;;;;;17.02;6.28;;;;;;;-12.19;47.47;101578.59;4767418;30;20696;-66
2023/01/09 08:02:38;;;;;;;20.38;7.00;;;;;;;-12.19;46.48;101583.03;4768681;30;20421;-63
2023/01/09 08:05:05;;;;;;;12.70;6.22;;;;;;;-12.06;46.06;101570.66;4767369;30;20048;-66
2023/01/09 08:07:31;;;;;;;19.70;7.18;;;;;;;-12.14;45.76;101575.66;4769294;30;20102;-63
2023/01/09 08:09:57;;;;;;;21.05;5.90;;;;;;;-12.16;45.49;101570.47;4768626;30;20415;-64
2023/01/09 08:12:25;;;;;;;14.52;5.95;;;;;;;-12.17;45.93;101574.06;4767565;30;20044;-63
2023/01/09 08:14:51;;;;;;;16.15;6.75;;;;;;;-12.40;46.28;101572.25;4768276;30;20457;-64
2023/01/09 08:17:17;;;;;;;15.70;6.60;;;;;;;-12.44;46.04;101573.41;4768292;30;20606;-63
2023/01/09 08:19:43;;;;;;;31.45;6.93;;;;;;;-12.39;45.71;101563.38;4768061;30;20138;-63
2023/01/09 08:22:10;;;;;;;16.65;6.22;;;;;;;-12.29;45.57;101567.03;4766954;30;20414;-64
2023/01/09 08:24:36;;;;;;;15.85;6.10;;;;;;;-12.40;45.15;101566.97;4767205;30;20055;-64
2023/01/09 08:27:02;;;;;;;20.35;7.45;;;;;;;-12.59;46.00;101564.78;4768388;30;20055;-64
2023/01/09 08:29:29;;;;;;;16.63;6.55;;;;;;;-12.52;46.41;101570.47;4767705;30;20067;-65
2023/01/09 08:31:55;;;;;;;15.15;6.05;;;;;;;-12.51;45.56;101567.75;4752569;30;20048;-64
2023/01/09 08:34:21;;;;;;;14.30;5.77;;;;;;;-12.69;45.76;101576.91;4767469;30;20054;-64
2023/01/09 08:36:48;;;;;;;11.93;5.47;;;;;;;-12.66;46.11;101559.09;4768748;30;20059;-65
2023/01/09 08:39:14;;;;;;;23.77;6.50;;;;;;;-12.91;45.90;101564.38;4767735;30;20089;-65
2023/01/09 08:47:08;;;;;;;12.10;6.47;;;;;;;-12.97;46.02;101559.56;4769047;30;20048;-64
2023/01/09 08:49:38;;;;;;;15.63;6.80;;;;;;;-13.20;45.76;101566.41;4767150;30;20040;-64
2023/01/09 08:52:06;;;;;;;23.92;6.85;;;;;;;-13.16;47.28;101565.25;4767852;30;20135;-64
2023/01/09 08:54:35;;;;;;;16.52;6.15;;;;;;;-13.40;47.05;101573.88;4768742;30;20047;-64
2023/01/09 08:57:01;;;;;;;16.85;6.72;;;;;;;-13.11;47.05;101569.25;4767708;30;20087;-64
2023/01/09 08:59:27;;;;;;;18.75;6.55;;;;;;;-12.96;46.68;101569.13;4767319;30;20044;-64
2023/01/09 09:01:53;;;;;;;19.65;6.85;;;;;;;-12.90;46.42;101574.81;4768331;30;20575;-64
2023/01/09 09:04:20;;;;;;;;;;;;;;;-12.86;46.56;101578.09;4768059;30;20067;-64
2023/01/09 09:06:47;;;;;;;18.77;5.70;;;;;;;-12.82;46.60;101569.03;4768553;30;20392;-65
2023/01/09 09:09:13;;;;;;;14.23;6.00;;;;;;;-12.93;46.65;101576.81;4767699;30;20113;-65
2023/01/09 09:11:41;;;;;;;15.57;6.27;;;;;;;-12.94;47.03;101573.34;4766585;30;20060;-64
2023/01/09 09:16:52;;;;;;;19.38;7.28;;;;;;;-12.87;46.69;101571.16;4769655;30;20044;-63
2023/01/09 09:19:20;;;;;;;17.23;6.40;;;;;;;-13.00;46.34;101560.63;4770823;30;20056;-64
2023/01/09 09:21:46;;;;;;;19.38;6.97;;;;;;;-12.84;46.44;101565.66;4770505;30;20139;-65
2023/01/09 09:24:13;;;;;;;12.50;6.10;;;;;;;-12.90;46.27;101563.47;4758561;30;20086;-64
2023/01/09 09:26:39;;;;;;;14.05;6.43;;;;;;;-12.98;46.69;101553.44;4753751;30;20052;-65
2023/01/09 09:29:06;;;;;;;15.52;6.10;;;;;;;-12.70;46.84;101556.81;4765245;30;20452;-64
2023/01/09 09:31:36;;;;;;;20.48;6.22;;;;;;;-12.82;46.19;101554.06;4770642;30;20047;-64
2023/01/09 09:34:02;;;;;;;13.75;5.75;;;;;;;-12.91;46.20;101559.97;4771277;30;20051;-66
2023/01/09 09:36:28;;;;;;;14.15;6.18;;;;;;;-13.00;46.82;101562.41;4770577;30;20144;-68
2023/01/09 09:38:55;;;;;;;10.73;4.28;;;;;;;-13.11;46.70;101561.34;4771189;30;20054;-66
2023/01/09 09:45:00;;;;;;;15.02;4.78;;;;;;;-13.10;46.39;101560.41;4771486;30;20147;-68
2023/01/09 09:47:48;;;;;;;11.27;4.22;;;;;;;-13.05;46.69;101566.16;4770648;30;20050;-68
2023/01/09 09:50:35;;;;;;;19.25;6.82;;;;;;;-13.01;46.87;101564.19;4771459;30;20058;-66
2023/01/09 09:53:29;;;;;;;13.48;6.00;;;;;;;-12.98;46.66;101563.13;4769147;30;20077;-69
2023/01/09 09:55:56;;;;;;;13.40;5.75;;;;;;;-12.92;46.19;101573.25;4770562;30;20071;-68
2023/01/09 09:58:39;;;;;;;12.43;5.97;;;;;;;-12.87;46.78;101568.50;4771756;30;20109;-67
2023/01/09 10:01:07;;;;;;;17.88;5.85;;;;;;;-12.94;46.50;101567.25;4770822;30;20051;-67
2023/01/09 10:03:40;;;;;;;10.85;4.80;;;;;;;-12.97;47.01;101568.31;4770145;30;20530;-68
2023/01/09 10:06:16;;;;;;;12.65;5.95;;;;;;;-12.82;47.23;101567.22;4771386;30;20105;-69
2023/01/09 10:09:04;;;;;;;17.02;6.18;;;;;;;-12.91;47.11;101565.25;4774180;30;20560;-81
2023/01/09 10:11:56;;;;;;;13.48;5.20;;;;;;;-12.76;47.27;101570.41;4776734;30;20078;-84
2023/01/09 10:14:23;;;;;;;12.63;5.80;;;;;;;-12.67;46.84;101554.78;4742674;30;20521;-83
2023/01/09 10:17:02;;;;;;;19.30;6.68;;;;;;;-12.59;47.01;101572.69;4756811;30;20055;-82
2023/01/09 10:19:37;;;;;;;12.18;5.95;;;;;;;-12.55;46.82;101560.97;4760216;30;20043;-83
2023/01/09 10:22:41;;;;;;;19.08;6.82;;;;;;;-12.45;46.74;101559.38;4758689;30;20148;-84
2023/01/09 10:25:29;;;;;;;14.70;6.40;;;;;;;-12.41;46.29;101565.28;4743248;30;20039;-82
2023/01/09 10:28:23;;;;;;;14.43;6.50;;;;;;;-12.48;46.68;101556.13;4775884;30;20048;-81
2023/01/09 10:31:10;;;;;;;16.08;7.07;;;;;;;-12.51;47.16;101557.19;4774245;30;20055;-82
2023/01/09 10:34:02;;;;;;;21.23;5.93;;;;;;;-12.55;46.71;101572.38;4749869;30;20070;-81
2023/01/09 10:36:41;;;;;;;14.25;6.55;;;;;;;-12.64;46.86;101577.44;4758476;30;20089;-81
2023/01/09 10:39:19;;;;;;;15.85;6.35;;;;;;;-12.53;46.56;101576.69;4774716;30;20059;-81
2023/01/09 10:42:10;;;;;;;17.95;7.13;;;;;;;-12.56;46.29;101578.59;4775256;30;20066;-82
2023/01/09 10:44:46;;;;;;;17.67;6.25;;;;;;;-12.52;46.74;101570.47;4765475;30;20084;-84
2023/01/09 10:47:41;;;;;;;17.23;6.40;;;;;;;-12.59;47.12;101577.97;4764060;30;20044;-85
2023/01/09 10:50:28;;;;;;;14.73;6.00;;;;;;;-12.38;46.85;101573.81;4746228;30;20048;-82
2023/01/09 10:52:55;;;;;;;16.50;6.55;;;;;;;-12.44;46.57;101568.97;4752268;30;20510;-85
2023/01/09 10:55:43;;;;;;;14.82;5.68;;;;;;;-12.69;46.86;101547.94;4778073;30;20048;-85
2023/01/09 10:58:17;;;;;;;14.57;5.70;;;;;;;-12.63;46.70;101589.66;4777645;30;20066;-83
2023/01/09 11:00:48;;;;;;;8.98;5.38;;;;;;;-12.75;47.43;101574.69;4774411;30;20036;-83
2023/01/09 11:03:21;;;;;;;14.75;6.45;;;;;;;-12.46;47.26;101586.69;4771532;30;20126;-83
2023/01/09 11:05:52;;;;;;;19.25;6.35;;;;;;;-12.48;46.94;101578.06;4775207;30;20090;-83
2023/01/09 11:08:39;;;;;;;18.50;7.57;;;;;;;-12.21;47.05;101584.97;4760701;30;20575;-84
2023/01/09 11:11:05;;;;;;;15.18;5.30;;;;;;;-12.52;46.29;101554.66;4774232;30;20047;-81
2023/01/09 11:13:33;;;;;;;17.13;7.35;;;;;;;-12.38;46.91;101589.63;4773006;30;20051;-81
2023/01/09 11:16:22;;;;;;;19.83;7.47;;;;;;;-12.28;46.91;101573.16;4772564;30;20048;-82
2023/01/09 11:19:00;;;;;;;20.67;7.45;;;;;;;-12.27;46.78;101591.50;4756521;30;20050;-83
2023/01/09 11:21:34;;;;;;;17.48;6.82;;;;;;;-12.32;46.70;101591.81;4772494;30;20075;-81
2023/01/09 11:24:22;;;;;;;20.00;6.97;;;;;;;-12.37;47.08;101595.75;4770322;30;20051;-82
2023/01/09 11:26:52;;;;;;;;;;;;;;;-12.23;46.85;101592.97;4772972;30;20090;-83
2023/01/09 11:29:25;;;;;;;13.45;5.45;;;;;;;-12.07;46.48;101595.34;4771230;30;19925;-83
2023/01/09 11:31:57;;;;;;;20.33;7.80;;;;;;;-12.15;46.61;101585.38;4769485;30;20130;-85
2023/01/09 11:34:26;;;;;;;14.98;6.68;;;;;;;-11.95;46.44;101597.09;4770615;30;20437;-82